sensor_id;sensor_type;location;lat;lon;timestamp;temperature;humidity
9861;DHT22;4969;52.304;4.968;2023-11-19T00:01:04;15.16;79.87
9861;DHT22;4969;52.304;4.968;2023-11-19T00:03:33;15.26;78.88
9861;DHT22;4969;52.304;4.968;2023-11-19T00:06:00;15.10;79.96
9861;DHT22;4969;52.304;4.968;2023-11-19T00:08:28;15.14;79.79
9861;DHT22;4969;52.304;4.968;2023-11-19T00:10:54;15.27;78.73
9861;DHT22;4969;52.304;4.968;2023-11-19T00:13:21;15.11;79.81
9861;DHT22;4969;52.304;4.968;2023-11-19T00:15:48;15.06;79.95
9861;DHT22;4969;52.304;4.968;2023-11-19T00:18:15;15.30;78.47
9861;DHT22;4969;52.304;4.968;2023-11-19T00:20:43;15.44;77.14
9861;DHT22;4969;52.304;4.968;2023-11-19T00:23:10;15.41;77.43
9861;DHT22;4969;52.304;4.968;2023-11-19T00:25:36;15.26;78.54
9861;DHT22;4969;52.304;4.968;2023-11-19T00:28:04;15.21;78.37
9861;DHT22;4969;52.304;4.968;2023-11-19T00:30:30;15.23;78.36
9861;DHT22;4969;52.304;4.968;2023-11-19T00:32:57;15.03;79.06
9861;DHT22;4969;52.304;4.968;2023-11-19T00:35:24;15.24;78.05
9861;DHT22;4969;52.304;4.968;2023-11-19T00:37:51;15.37;77.28
9861;DHT22;4969;52.304;4.968;2023-11-19T00:40:19;15.37;77.49
9861;DHT22;4969;52.304;4.968;2023-11-19T00:42:48;15.14;78.72
9861;DHT22;4969;52.304;4.968;2023-11-19T00:45:15;15.06;79.01
9861;DHT22;4969;52.304;4.968;2023-11-19T00:47:41;15.27;77.38
9861;DHT22;4969;52.304;4.968;2023-11-19T00:50:08;15.31;77.58
9861;DHT22;4969;52.304;4.968;2023-11-19T00:52:36;15.06;78.61
9861;DHT22;4969;52.304;4.968;2023-11-19T00:55:06;15.28;77.05
9861;DHT22;4969;52.304;4.968;2023-11-19T00:57:32;15.11;78.39
9861;DHT22;4969;52.304;4.968;2023-11-19T00:59:59;15.18;77.83
9861;DHT22;4969;52.304;4.968;2023-11-19T01:02:26;15.04;78.67
9861;DHT22;4969;52.304;4.968;2023-11-19T01:04:52;15.02;78.83
9861;DHT22;4969;52.304;4.968;2023-11-19T01:07:19;15.45;76.22
9861;DHT22;4969;52.304;4.968;2023-11-19T01:09:47;15.30;76.71
9861;DHT22;4969;52.304;4.968;2023-11-19T01:12:15;15.23;76.84
9861;DHT22;4969;52.304;4.968;2023-11-19T01:14:41;15.31;77.02
9861;DHT22;4969;52.304;4.968;2023-11-19T01:17:08;15.31;76.01
9861;DHT22;4969;52.304;4.968;2023-11-19T01:19:34;15.21;77.40
9861;DHT22;4969;52.304;4.968;2023-11-19T01:22:01;15.45;75.85
9861;DHT22;4969;52.304;4.968;2023-11-19T01:24:27;15.43;76.14
9861;DHT22;4969;52.304;4.968;2023-11-19T01:26:56;15.26;77.40
9861;DHT22;4969;52.304;4.968;2023-11-19T01:29:26;15.21;77.53
9861;DHT22;4969;52.304;4.968;2023-11-19T01:31:52;15.33;76.50
9861;DHT22;4969;52.304;4.968;2023-11-19T01:34:19;15.53;75.60
9861;DHT22;4969;52.304;4.968;2023-11-19T01:36:46;15.53;75.61
9861;DHT22;4969;52.304;4.968;2023-11-19T01:39:14;15.21;76.81
9861;DHT22;4969;52.304;4.968;2023-11-19T01:41:41;15.26;76.51
9861;DHT22;4969;52.304;4.968;2023-11-19T01:44:08;15.37;76.23
9861;DHT22;4969;52.304;4.968;2023-11-19T01:46:37;15.09;77.68
9861;DHT22;4969;52.304;4.968;2023-11-19T01:49:05;14.92;78.39
9861;DHT22;4969;52.304;4.968;2023-11-19T01:51:31;14.68;79.47
9861;DHT22;4969;52.304;4.968;2023-11-19T01:53:59;14.96;78.09
9861;DHT22;4969;52.304;4.968;2023-11-19T01:56:26;14.71;79.10
9861;DHT22;4969;52.304;4.968;2023-11-19T01:58:53;14.96;77.97
9861;DHT22;4969;52.304;4.968;2023-11-19T02:01:20;14.95;77.76
9861;DHT22;4969;52.304;4.968;2023-11-19T02:03:48;15.41;75.42
9861;DHT22;4969;52.304;4.968;2023-11-19T02:06:15;14.90;77.33
9861;DHT22;4969;52.304;4.968;2023-11-19T02:08:42;14.92;77.41
9861;DHT22;4969;52.304;4.968;2023-11-19T02:11:08;14.75;77.84
9861;DHT22;4969;52.304;4.968;2023-11-19T02:13:37;14.45;78.86
9861;DHT22;4969;52.304;4.968;2023-11-19T02:16:04;14.47;78.82
9861;DHT22;4969;52.304;4.968;2023-11-19T02:18:32;14.83;77.66
9861;DHT22;4969;52.304;4.968;2023-11-19T02:21:00;15.00;76.66
9861;DHT22;4969;52.304;4.968;2023-11-19T02:23:27;14.69;77.65
9861;DHT22;4969;52.304;4.968;2023-11-19T02:26:12;14.68;78.40
9861;DHT22;4969;52.304;4.968;2023-11-19T02:28:42;14.64;77.89
9861;DHT22;4969;52.304;4.968;2023-11-19T02:31:09;14.60;78.00
9861;DHT22;4969;52.304;4.968;2023-11-19T02:33:36;14.58;77.99
9861;DHT22;4969;52.304;4.968;2023-11-19T02:36:04;14.48;78.71
9861;DHT22;4969;52.304;4.968;2023-11-19T02:38:30;14.52;78.45
9861;DHT22;4969;52.304;4.968;2023-11-19T02:40:57;14.86;77.57
9861;DHT22;4969;52.304;4.968;2023-11-19T02:43:23;15.07;76.04
9861;DHT22;4969;52.304;4.968;2023-11-19T02:45:51;14.68;77.03
9861;DHT22;4969;52.304;4.968;2023-11-19T02:48:21;14.64;77.48
9861;DHT22;4969;52.304;4.968;2023-11-19T02:50:47;14.73;76.89
9861;DHT22;4969;52.304;4.968;2023-11-19T02:53:14;14.83;76.56
9861;DHT22;4969;52.304;4.968;2023-11-19T02:55:41;14.57;76.95
9861;DHT22;4969;52.304;4.968;2023-11-19T02:58:13;14.58;77.25
9861;DHT22;4969;52.304;4.968;2023-11-19T03:00:45;14.30;77.89
9861;DHT22;4969;52.304;4.968;2023-11-19T03:03:18;14.48;77.86
9861;DHT22;4969;52.304;4.968;2023-11-19T03:05:48;14.61;76.86
9861;DHT22;4969;52.304;4.968;2023-11-19T03:08:15;14.62;77.44
9861;DHT22;4969;52.304;4.968;2023-11-19T03:10:42;14.45;77.46
9861;DHT22;4969;52.304;4.968;2023-11-19T03:13:11;14.13;77.98
9861;DHT22;4969;52.304;4.968;2023-11-19T03:15:38;14.54;77.16
9861;DHT22;4969;52.304;4.968;2023-11-19T03:18:04;14.81;76.18
9861;DHT22;4969;52.304;4.968;2023-11-19T03:20:32;14.67;76.46
9861;DHT22;4969;52.304;4.968;2023-11-19T03:22:59;14.52;76.69
9861;DHT22;4969;52.304;4.968;2023-11-19T03:25:26;14.30;77.60
9861;DHT22;4969;52.304;4.968;2023-11-19T03:27:58;14.23;77.62
9861;DHT22;4969;52.304;4.968;2023-11-19T03:30:25;14.24;77.46
9861;DHT22;4969;52.304;4.968;2023-11-19T03:32:51;14.38;77.42
9861;DHT22;4969;52.304;4.968;2023-11-19T03:35:18;14.41;76.68
9861;DHT22;4969;52.304;4.968;2023-11-19T03:37:46;14.34;77.44
9861;DHT22;4969;52.304;4.968;2023-11-19T03:40:13;14.38;76.50
9861;DHT22;4969;52.304;4.968;2023-11-19T03:42:40;14.18;77.20
9861;DHT22;4969;52.304;4.968;2023-11-19T03:45:06;14.30;76.64
9861;DHT22;4969;52.304;4.968;2023-11-19T03:47:34;14.69;75.62
9861;DHT22;4969;52.304;4.968;2023-11-19T03:50:00;14.21;77.24
9861;DHT22;4969;52.304;4.968;2023-11-19T03:52:27;14.51;76.82
9861;DHT22;4969;52.304;4.968;2023-11-19T03:54:55;14.41;76.46
9861;DHT22;4969;52.304;4.968;2023-11-19T03:57:22;14.16;76.57
9861;DHT22;4969;52.304;4.968;2023-11-19T03:59:49;14.33;77.02
9861;DHT22;4969;52.304;4.968;2023-11-19T04:02:16;14.35;76.06
9861;DHT22;4969;52.304;4.968;2023-11-19T04:04:42;14.26;76.85
9861;DHT22;4969;52.304;4.968;2023-11-19T04:07:09;14.10;77.22
9861;DHT22;4969;52.304;4.968;2023-11-19T04:09:36;14.24;76.55
9861;DHT22;4969;52.304;4.968;2023-11-19T04:12:04;13.97;76.75
9861;DHT22;4969;52.304;4.968;2023-11-19T04:14:32;13.97;77.59
9861;DHT22;4969;52.304;4.968;2023-11-19T04:16:58;14.21;76.23
9861;DHT22;4969;52.304;4.968;2023-11-19T04:19:25;14.13;77.38
9861;DHT22;4969;52.304;4.968;2023-11-19T04:21:51;14.16;76.66
9861;DHT22;4969;52.304;4.968;2023-11-19T04:24:18;14.12;76.73
9861;DHT22;4969;52.304;4.968;2023-11-19T04:26:45;13.82;76.76
9861;DHT22;4969;52.304;4.968;2023-11-19T04:29:15;13.75;77.39
9861;DHT22;4969;52.304;4.968;2023-11-19T04:31:42;14.05;77.35
9861;DHT22;4969;52.304;4.968;2023-11-19T04:34:09;13.99;77.09
9861;DHT22;4969;52.304;4.968;2023-11-19T04:36:36;14.13;77.55
9861;DHT22;4969;52.304;4.968;2023-11-19T04:39:04;14.07;77.17
9861;DHT22;4969;52.304;4.968;2023-11-19T04:41:34;14.14;76.31
9861;DHT22;4969;52.304;4.968;2023-11-19T04:44:01;14.17;76.33
9861;DHT22;4969;52.304;4.968;2023-11-19T04:46:29;14.20;75.84
9861;DHT22;4969;52.304;4.968;2023-11-19T04:48:55;14.17;75.55
9861;DHT22;4969;52.304;4.968;2023-11-19T04:51:22;14.12;75.47
9861;DHT22;4969;52.304;4.968;2023-11-19T04:53:48;14.03;76.68
9861;DHT22;4969;52.304;4.968;2023-11-19T04:56:15;14.09;75.16
9861;DHT22;4969;52.304;4.968;2023-11-19T04:58:45;14.02;75.72
9861;DHT22;4969;52.304;4.968;2023-11-19T05:01:13;13.86;77.34
9861;DHT22;4969;52.304;4.968;2023-11-19T05:03:43;14.03;76.01
9861;DHT22;4969;52.304;4.968;2023-11-19T05:06:10;14.09;77.20
9861;DHT22;4969;52.304;4.968;2023-11-19T05:08:37;13.89;76.00
9861;DHT22;4969;52.304;4.968;2023-11-19T05:11:04;13.89;76.41
9861;DHT22;4969;52.304;4.968;2023-11-19T05:13:31;13.82;75.53
9861;DHT22;4969;52.304;4.968;2023-11-19T05:15:57;14.06;75.28
9861;DHT22;4969;52.304;4.968;2023-11-19T05:18:24;13.93;74.81
9861;DHT22;4969;52.304;4.968;2023-11-19T05:20:52;13.96;75.89
9861;DHT22;4969;52.304;4.968;2023-11-19T05:23:18;14.37;75.51
9861;DHT22;4969;52.304;4.968;2023-11-19T05:25:45;14.12;75.00
9861;DHT22;4969;52.304;4.968;2023-11-19T05:28:13;13.90;75.05
9861;DHT22;4969;52.304;4.968;2023-11-19T05:30:39;13.86;74.77
9861;DHT22;4969;52.304;4.968;2023-11-19T05:33:06;13.95;77.12
9861;DHT22;4969;52.304;4.968;2023-11-19T05:35:34;14.03;76.52
9861;DHT22;4969;52.304;4.968;2023-11-19T05:38:02;13.90;74.34
9861;DHT22;4969;52.304;4.968;2023-11-19T05:40:28;13.55;76.59
9861;DHT22;4969;52.304;4.968;2023-11-19T05:42:55;13.79;75.69
9861;DHT22;4969;52.304;4.968;2023-11-19T05:45:21;13.59;76.20
9861;DHT22;4969;52.304;4.968;2023-11-19T05:47:48;13.57;75.81
9861;DHT22;4969;52.304;4.968;2023-11-19T05:50:14;13.41;76.25
9861;DHT22;4969;52.304;4.968;2023-11-19T05:52:41;13.62;76.43
9861;DHT22;4969;52.304;4.968;2023-11-19T05:55:09;13.85;76.13
9861;DHT22;4969;52.304;4.968;2023-11-19T05:57:36;13.75;76.14
9861;DHT22;4969;52.304;4.968;2023-11-19T06:00:03;13.79;76.57
9861;DHT22;4969;52.304;4.968;2023-11-19T06:02:33;13.69;75.65
9861;DHT22;4969;52.304;4.968;2023-11-19T06:05:03;13.22;76.74
9861;DHT22;4969;52.304;4.968;2023-11-19T06:07:30;13.48;77.14
9861;DHT22;4969;52.304;4.968;2023-11-19T06:09:57;13.78;75.93
9861;DHT22;4969;52.304;4.968;2023-11-19T06:12:25;13.52;75.58
9861;DHT22;4969;52.304;4.968;2023-11-19T06:14:53;13.22;76.95
9861;DHT22;4969;52.304;4.968;2023-11-19T06:17:19;13.63;76.87
9861;DHT22;4969;52.304;4.968;2023-11-19T06:19:46;13.42;76.17
9861;DHT22;4969;52.304;4.968;2023-11-19T06:22:12;13.52;76.02
9861;DHT22;4969;52.304;4.968;2023-11-19T06:24:39;13.50;76.23
9861;DHT22;4969;52.304;4.968;2023-11-19T06:27:08;13.52;75.79
9861;DHT22;4969;52.304;4.968;2023-11-19T06:29:36;13.51;76.18
9861;DHT22;4969;52.304;4.968;2023-11-19T06:32:03;13.42;75.64
9861;DHT22;4969;52.304;4.968;2023-11-19T06:34:31;13.48;77.28
9861;DHT22;4969;52.304;4.968;2023-11-19T06:36:58;13.50;75.67
9861;DHT22;4969;52.304;4.968;2023-11-19T06:39:25;13.71;75.71
9861;DHT22;4969;52.304;4.968;2023-11-19T06:41:52;13.45;75.26
9861;DHT22;4969;52.304;4.968;2023-11-19T06:44:18;13.38;75.77
9861;DHT22;4969;52.304;4.968;2023-11-19T06:46:48;13.54;75.80
9861;DHT22;4969;52.304;4.968;2023-11-19T06:49:14;13.54;76.26
9861;DHT22;4969;52.304;4.968;2023-11-19T06:51:42;13.55;76.02
9861;DHT22;4969;52.304;4.968;2023-11-19T06:54:09;13.61;75.79
9861;DHT22;4969;52.304;4.968;2023-11-19T06:56:36;13.74;75.40
9861;DHT22;4969;52.304;4.968;2023-11-19T06:59:02;13.74;76.08
9861;DHT22;4969;52.304;4.968;2023-11-19T07:01:34;13.75;75.45
9861;DHT22;4969;52.304;4.968;2023-11-19T07:04:02;13.97;75.02
9861;DHT22;4969;52.304;4.968;2023-11-19T07:06:33;13.69;74.95
9861;DHT22;4969;52.304;4.968;2023-11-19T07:09:00;13.41;76.11
9861;DHT22;4969;52.304;4.968;2023-11-19T07:11:34;13.71;76.73
9861;DHT22;4969;52.304;4.968;2023-11-19T07:14:01;13.61;76.20
9861;DHT22;4969;52.304;4.968;2023-11-19T07:16:28;13.50;76.98
9861;DHT22;4969;52.304;4.968;2023-11-19T07:18:54;13.65;76.46
9861;DHT22;4969;52.304;4.968;2023-11-19T07:21:22;13.65;76.50
9861;DHT22;4969;52.304;4.968;2023-11-19T07:23:49;13.55;76.31
9861;DHT22;4969;52.304;4.968;2023-11-19T07:26:17;13.58;76.42
9861;DHT22;4969;52.304;4.968;2023-11-19T07:28:43;13.79;76.35
9861;DHT22;4969;52.304;4.968;2023-11-19T07:31:11;13.69;75.59
9861;DHT22;4969;52.304;4.968;2023-11-19T07:33:39;14.03;77.58
9861;DHT22;4969;52.304;4.968;2023-11-19T07:36:08;13.77;75.27
9861;DHT22;4969;52.304;4.968;2023-11-19T07:38:36;13.90;75.61
9861;DHT22;4969;52.304;4.968;2023-11-19T07:41:04;13.83;74.95
9861;DHT22;4969;52.304;4.968;2023-11-19T07:43:34;13.89;74.91
9861;DHT22;4969;52.304;4.968;2023-11-19T07:46:01;13.89;75.11
9861;DHT22;4969;52.304;4.968;2023-11-19T07:48:29;14.02;75.54
9861;DHT22;4969;52.304;4.968;2023-11-19T07:50:55;13.97;75.54
9861;DHT22;4969;52.304;4.968;2023-11-19T07:53:22;13.63;74.92
9861;DHT22;4969;52.304;4.968;2023-11-19T07:55:50;13.57;77.39
9861;DHT22;4969;52.304;4.968;2023-11-19T07:58:16;13.85;76.28
9861;DHT22;4969;52.304;4.968;2023-11-19T08:00:43;13.90;76.45
9861;DHT22;4969;52.304;4.968;2023-11-19T08:03:09;14.00;75.25
9861;DHT22;4969;52.304;4.968;2023-11-19T08:05:36;13.82;74.53
9861;DHT22;4969;52.304;4.968;2023-11-19T08:08:03;13.81;75.69
9861;DHT22;4969;52.304;4.968;2023-11-19T08:10:29;13.81;75.55
9861;DHT22;4969;52.304;4.968;2023-11-19T08:12:59;13.93;75.56
9861;DHT22;4969;52.304;4.968;2023-11-19T08:15:27;13.88;75.54
9861;DHT22;4969;52.304;4.968;2023-11-19T08:17:53;13.82;75.55
9861;DHT22;4969;52.304;4.968;2023-11-19T08:20:20;14.02;76.14
9861;DHT22;4969;52.304;4.968;2023-11-19T08:22:46;14.28;75.79
9861;DHT22;4969;52.304;4.968;2023-11-19T08:25:13;14.31;74.30
9861;DHT22;4969;52.304;4.968;2023-11-19T08:27:40;14.05;73.80
9861;DHT22;4969;52.304;4.968;2023-11-19T08:30:09;14.02;74.94
9861;DHT22;4969;52.304;4.968;2023-11-19T08:32:35;14.21;73.93
9861;DHT22;4969;52.304;4.968;2023-11-19T08:35:02;14.13;74.64
9861;DHT22;4969;52.304;4.968;2023-11-19T08:37:29;14.02;74.07
9861;DHT22;4969;52.304;4.968;2023-11-19T08:39:56;14.06;74.60
9861;DHT22;4969;52.304;4.968;2023-11-19T08:42:23;13.92;74.40
9861;DHT22;4969;52.304;4.968;2023-11-19T08:44:50;14.06;75.10
9861;DHT22;4969;52.304;4.968;2023-11-19T08:47:20;13.95;74.65
9861;DHT22;4969;52.304;4.968;2023-11-19T08:49:48;13.78;75.21
9861;DHT22;4969;52.304;4.968;2023-11-19T08:52:16;14.07;75.50
9861;DHT22;4969;52.304;4.968;2023-11-19T08:54:43;14.03;74.26
9861;DHT22;4969;52.304;4.968;2023-11-19T08:57:10;14.47;74.94
9861;DHT22;4969;52.304;4.968;2023-11-19T08:59:36;14.34;73.93
9861;DHT22;4969;52.304;4.968;2023-11-19T09:02:04;14.14;74.05
9861;DHT22;4969;52.304;4.968;2023-11-19T09:04:32;14.45;75.82
9861;DHT22;4969;52.304;4.968;2023-11-19T09:06:58;14.35;74.10
9861;DHT22;4969;52.304;4.968;2023-11-19T09:09:25;14.61;74.36
9861;DHT22;4969;52.304;4.968;2023-11-19T09:11:52;14.40;72.85
9861;DHT22;4969;52.304;4.968;2023-11-19T09:14:18;14.34;73.60
9861;DHT22;4969;52.304;4.968;2023-11-19T09:16:49;14.58;73.88
9861;DHT22;4969;52.304;4.968;2023-11-19T09:19:16;14.61;74.23
9861;DHT22;4969;52.304;4.968;2023-11-19T09:21:44;14.75;73.28
9861;DHT22;4969;52.304;4.968;2023-11-19T09:24:10;14.72;73.64
9861;DHT22;4969;52.304;4.968;2023-11-19T09:26:37;14.52;72.86
9861;DHT22;4969;52.304;4.968;2023-11-19T09:29:05;14.64;74.81
9861;DHT22;4969;52.304;4.968;2023-11-19T09:31:32;14.38;73.02
9861;DHT22;4969;52.304;4.968;2023-11-19T09:33:59;14.47;73.52
9861;DHT22;4969;52.304;4.968;2023-11-19T09:36:26;14.42;73.33
9861;DHT22;4969;52.304;4.968;2023-11-19T09:38:54;14.31;73.59
9861;DHT22;4969;52.304;4.968;2023-11-19T09:41:20;14.62;73.49
9861;DHT22;4969;52.304;4.968;2023-11-19T09:43:47;14.82;72.58
9861;DHT22;4969;52.304;4.968;2023-11-19T09:46:15;14.85;73.91
9861;DHT22;4969;52.304;4.968;2023-11-19T09:48:43;15.13;72.04
9861;DHT22;4969;52.304;4.968;2023-11-19T09:51:11;15.36;71.93
9861;DHT22;4969;52.304;4.968;2023-11-19T09:53:37;15.36;72.03
9861;DHT22;4969;52.304;4.968;2023-11-19T09:56:06;15.04;72.84
9861;DHT22;4969;52.304;4.968;2023-11-19T09:58:34;15.36;72.62
9861;DHT22;4969;52.304;4.968;2023-11-19T10:01:01;14.83;72.58
9861;DHT22;4969;52.304;4.968;2023-11-19T10:03:33;14.96;73.31
9861;DHT22;4969;52.304;4.968;2023-11-19T10:06:01;14.82;72.43
9861;DHT22;4969;52.304;4.968;2023-11-19T10:08:29;14.67;72.61
9861;DHT22;4969;52.304;4.968;2023-11-19T10:10:55;14.38;73.13
9861;DHT22;4969;52.304;4.968;2023-11-19T10:13:27;14.62;74.57
9861;DHT22;4969;52.304;4.968;2023-11-19T10:15:55;14.68;73.73
9861;DHT22;4969;52.304;4.968;2023-11-19T10:18:24;14.55;72.40
9861;DHT22;4969;52.304;4.968;2023-11-19T10:20:51;14.62;73.19
9861;DHT22;4969;52.304;4.968;2023-11-19T10:23:17;14.60;72.56
9861;DHT22;4969;52.304;4.968;2023-11-19T10:25:44;14.67;73.44
9861;DHT22;4969;52.304;4.968;2023-11-19T10:28:11;14.48;73.29
9861;DHT22;4969;52.304;4.968;2023-11-19T10:30:40;14.37;72.80
9861;DHT22;4969;52.304;4.968;2023-11-19T10:33:09;14.68;73.31
9861;DHT22;4969;52.304;4.968;2023-11-19T10:35:37;14.54;72.18
9861;DHT22;4969;52.304;4.968;2023-11-19T10:38:16;14.44;72.52
9861;DHT22;4969;52.304;4.968;2023-11-19T10:40:43;14.60;73.37
9861;DHT22;4969;52.304;4.968;2023-11-19T10:43:09;14.55;73.25
9861;DHT22;4969;52.304;4.968;2023-11-19T10:45:37;14.88;72.53
9861;DHT22;4969;52.304;4.968;2023-11-19T10:48:06;14.76;72.13
9861;DHT22;4969;52.304;4.968;2023-11-19T10:50:33;14.51;72.57
9861;DHT22;4969;52.304;4.968;2023-11-19T10:53:01;14.51;72.52
9861;DHT22;4969;52.304;4.968;2023-11-19T10:55:29;14.58;72.67
9861;DHT22;4969;52.304;4.968;2023-11-19T10:58:00;14.62;72.95
9861;DHT22;4969;52.304;4.968;2023-11-19T11:00:29;14.71;72.95
9861;DHT22;4969;52.304;4.968;2023-11-19T11:03:00;14.68;72.46
9861;DHT22;4969;52.304;4.968;2023-11-19T11:05:29;14.82;71.33
9861;DHT22;4969;52.304;4.968;2023-11-19T11:07:58;15.18;71.94
9861;DHT22;4969;52.304;4.968;2023-11-19T11:10:26;15.03;71.10
9861;DHT22;4969;52.304;4.968;2023-11-19T11:12:56;14.86;70.13
9861;DHT22;4969;52.304;4.968;2023-11-19T11:15:27;15.16;71.20
9861;DHT22;4969;52.304;4.968;2023-11-19T11:17:58;14.83;70.84
9861;DHT22;4969;52.304;4.968;2023-11-19T11:20:26;14.82;71.19
9861;DHT22;4969;52.304;4.968;2023-11-19T11:23:05;14.88;70.99
9861;DHT22;4969;52.304;4.968;2023-11-19T11:25:42;14.81;70.88
9861;DHT22;4969;52.304;4.968;2023-11-19T11:28:19;14.88;71.15
9861;DHT22;4969;52.304;4.968;2023-11-19T11:31:03;14.82;70.19
9861;DHT22;4969;52.304;4.968;2023-11-19T11:33:44;14.73;72.00
9861;DHT22;4969;52.304;4.968;2023-11-19T11:36:22;14.75;70.34
9861;DHT22;4969;52.304;4.968;2023-11-19T11:38:50;14.75;70.53
9861;DHT22;4969;52.304;4.968;2023-11-19T11:41:19;14.79;69.98
9861;DHT22;4969;52.304;4.968;2023-11-19T11:43:47;14.75;70.52
9861;DHT22;4969;52.304;4.968;2023-11-19T11:49:24;14.96;69.70
9861;DHT22;4969;52.304;4.968;2023-11-19T11:51:58;14.89;70.23
9861;DHT22;4969;52.304;4.968;2023-11-19T11:54:29;14.75;70.74
9861;DHT22;4969;52.304;4.968;2023-11-19T11:57:10;14.88;70.59
9861;DHT22;4969;52.304;4.968;2023-11-19T11:59:47;14.93;70.51
9861;DHT22;4969;52.304;4.968;2023-11-19T12:02:15;15.02;71.56
9861;DHT22;4969;52.304;4.968;2023-11-19T12:04:43;15.18;69.21
9861;DHT22;4969;52.304;4.968;2023-11-19T12:07:12;14.89;70.49
9861;DHT22;4969;52.304;4.968;2023-11-19T12:09:41;15.04;69.46
9861;DHT22;4969;52.304;4.968;2023-11-19T12:12:18;15.02;69.37
9861;DHT22;4969;52.304;4.968;2023-11-19T12:15:05;14.95;69.89
9861;DHT22;4969;52.304;4.968;2023-11-19T12:17:43;15.00;69.92
9861;DHT22;4969;52.304;4.968;2023-11-19T12:20:10;15.21;71.81
9861;DHT22;4969;52.304;4.968;2023-11-19T12:22:38;15.23;69.53
9861;DHT22;4969;52.304;4.968;2023-11-19T12:25:07;15.06;70.43
9861;DHT22;4969;52.304;4.968;2023-11-19T12:27:34;15.16;70.86
9861;DHT22;4969;52.304;4.968;2023-11-19T12:30:01;14.98;69.61
9861;DHT22;4969;52.304;4.968;2023-11-19T12:32:37;14.88;70.02
9861;DHT22;4969;52.304;4.968;2023-11-19T12:35:04;14.89;70.17
9861;DHT22;4969;52.304;4.968;2023-11-19T12:37:31;14.92;70.48
9861;DHT22;4969;52.304;4.968;2023-11-19T12:39:57;15.14;73.18
9861;DHT22;4969;52.304;4.968;2023-11-19T12:42:35;15.40;69.62
9861;DHT22;4969;52.304;4.968;2023-11-19T12:45:03;15.23;72.66
9861;DHT22;4969;52.304;4.968;2023-11-19T12:47:30;14.95;70.21
9861;DHT22;4969;52.304;4.968;2023-11-19T12:49:58;14.76;69.73
9861;DHT22;4969;52.304;4.968;2023-11-19T12:52:24;14.81;73.09
9861;DHT22;4969;52.304;4.968;2023-11-19T12:54:51;14.85;71.37
9861;DHT22;4969;52.304;4.968;2023-11-19T12:57:18;15.24;72.53
9861;DHT22;4969;52.304;4.968;2023-11-19T12:59:55;15.17;70.02
9861;DHT22;4969;52.304;4.968;2023-11-19T13:02:22;15.06;71.72
9861;DHT22;4969;52.304;4.968;2023-11-19T13:04:49;14.92;70.70
9861;DHT22;4969;52.304;4.968;2023-11-19T13:07:20;15.06;72.44
9861;DHT22;4969;52.304;4.968;2023-11-19T13:09:47;15.09;71.24
9861;DHT22;4969;52.304;4.968;2023-11-19T13:12:14;15.03;70.02
9861;DHT22;4969;52.304;4.968;2023-11-19T13:14:42;14.92;70.59
9861;DHT22;4969;52.304;4.968;2023-11-19T13:17:14;14.82;71.49
9861;DHT22;4969;52.304;4.968;2023-11-19T13:19:40;15.00;71.61
9861;DHT22;4969;52.304;4.968;2023-11-19T13:22:07;14.90;72.37
9861;DHT22;4969;52.304;4.968;2023-11-19T13:24:34;15.03;70.47
9861;DHT22;4969;52.304;4.968;2023-11-19T13:27:00;15.04;71.30
9861;DHT22;4969;52.304;4.968;2023-11-19T13:29:27;14.90;71.44
9861;DHT22;4969;52.304;4.968;2023-11-19T13:31:53;14.95;71.80
9861;DHT22;4969;52.304;4.968;2023-11-19T13:34:21;14.81;70.79
9861;DHT22;4969;52.304;4.968;2023-11-19T13:36:48;14.83;71.70
9861;DHT22;4969;52.304;4.968;2023-11-19T13:39:14;14.78;73.08
9861;DHT22;4969;52.304;4.968;2023-11-19T13:41:48;14.75;71.77
9861;DHT22;4969;52.304;4.968;2023-11-19T13:44:15;14.78;74.80
9861;DHT22;4969;52.304;4.968;2023-11-19T13:46:44;14.75;71.97
9861;DHT22;4969;52.304;4.968;2023-11-19T13:49:11;14.99;72.68
9861;DHT22;4969;52.304;4.968;2023-11-19T13:51:39;14.65;73.26
9861;DHT22;4969;52.304;4.968;2023-11-19T13:54:05;14.73;72.51
9861;DHT22;4969;52.304;4.968;2023-11-19T13:56:32;14.95;73.71
9861;DHT22;4969;52.304;4.968;2023-11-19T13:58:58;14.58;72.17
9861;DHT22;4969;52.304;4.968;2023-11-19T14:01:25;14.85;72.73
9861;DHT22;4969;52.304;4.968;2023-11-19T14:03:52;15.30;71.37
9861;DHT22;4969;52.304;4.968;2023-11-19T14:06:19;15.07;69.33
9861;DHT22;4969;52.304;4.968;2023-11-19T14:08:47;14.85;72.04
9861;DHT22;4969;52.304;4.968;2023-11-19T14:11:13;14.95;73.06
9861;DHT22;4969;52.304;4.968;2023-11-19T14:13:40;14.96;70.45
9861;DHT22;4969;52.304;4.968;2023-11-19T14:16:07;14.79;71.12
9861;DHT22;4969;52.304;4.968;2023-11-19T14:18:34;14.81;71.18
9861;DHT22;4969;52.304;4.968;2023-11-19T14:21:01;15.06;70.53
9861;DHT22;4969;52.304;4.968;2023-11-19T14:23:28;15.30;72.57
9861;DHT22;4969;52.304;4.968;2023-11-19T14:25:56;15.38;69.30
9861;DHT22;4969;52.304;4.968;2023-11-19T14:28:23;15.17;69.87
9861;DHT22;4969;52.304;4.968;2023-11-19T14:30:51;15.10;70.55
9861;DHT22;4969;52.304;4.968;2023-11-19T14:33:22;15.41;69.96
9861;DHT22;4969;52.304;4.968;2023-11-19T14:35:48;15.48;70.08
9861;DHT22;4969;52.304;4.968;2023-11-19T14:38:15;15.30;71.82
9861;DHT22;4969;52.304;4.968;2023-11-19T14:40:42;15.24;72.24
9861;DHT22;4969;52.304;4.968;2023-11-19T14:43:09;15.04;72.88
9861;DHT22;4969;52.304;4.968;2023-11-19T14:45:36;15.24;72.25
9861;DHT22;4969;52.304;4.968;2023-11-19T14:48:03;15.40;73.06
9861;DHT22;4969;52.304;4.968;2023-11-19T14:50:30;15.14;72.19
9861;DHT22;4969;52.304;4.968;2023-11-19T14:52:57;15.07;72.10
9861;DHT22;4969;52.304;4.968;2023-11-19T14:55:23;15.09;71.88
9861;DHT22;4969;52.304;4.968;2023-11-19T14:57:51;15.18;71.85
9861;DHT22;4969;52.304;4.968;2023-11-19T15:00:19;15.73;70.28
9861;DHT22;4969;52.304;4.968;2023-11-19T15:02:46;15.17;70.24
9861;DHT22;4969;52.304;4.968;2023-11-19T15:05:13;15.43;71.99
9861;DHT22;4969;52.304;4.968;2023-11-19T15:07:40;15.36;72.88
9861;DHT22;4969;52.304;4.968;2023-11-19T15:10:07;15.44;71.38
9861;DHT22;4969;52.304;4.968;2023-11-19T15:12:36;15.43;72.51
9861;DHT22;4969;52.304;4.968;2023-11-19T15:15:06;15.06;71.53
9861;DHT22;4969;52.304;4.968;2023-11-19T15:17:34;15.10;71.58
9861;DHT22;4969;52.304;4.968;2023-11-19T15:20:02;14.82;71.40
9861;DHT22;4969;52.304;4.968;2023-11-19T15:22:29;15.04;71.73
9861;DHT22;4969;52.304;4.968;2023-11-19T15:24:56;15.44;73.30
9861;DHT22;4969;52.304;4.968;2023-11-19T15:27:23;15.09;70.57
9861;DHT22;4969;52.304;4.968;2023-11-19T15:29:49;14.99;71.24
9861;DHT22;4969;52.304;4.968;2023-11-19T15:32:16;15.17;72.30
9861;DHT22;4969;52.304;4.968;2023-11-19T15:34:44;15.54;72.85
9861;DHT22;4969;52.304;4.968;2023-11-19T15:37:10;15.55;70.01
9861;DHT22;4969;52.304;4.968;2023-11-19T15:39:39;15.61;71.94
9861;DHT22;4969;52.304;4.968;2023-11-19T15:42:06;15.53;69.76
9861;DHT22;4969;52.304;4.968;2023-11-19T15:44:35;15.43;70.74
9861;DHT22;4969;52.304;4.968;2023-11-19T15:47:02;15.13;70.60
9861;DHT22;4969;52.304;4.968;2023-11-19T15:49:28;15.04;71.55
9861;DHT22;4969;52.304;4.968;2023-11-19T15:51:56;15.33;73.81
9861;DHT22;4969;52.304;4.968;2023-11-19T15:54:23;15.47;71.85
9861;DHT22;4969;52.304;4.968;2023-11-19T15:56:49;15.26;72.47
9861;DHT22;4969;52.304;4.968;2023-11-19T15:59:16;14.96;72.92
9861;DHT22;4969;52.304;4.968;2023-11-19T16:01:43;14.89;73.08
9861;DHT22;4969;52.304;4.968;2023-11-19T16:04:10;15.06;72.16
9861;DHT22;4969;52.304;4.968;2023-11-19T16:06:36;15.16;73.22
9861;DHT22;4969;52.304;4.968;2023-11-19T16:09:04;15.27;73.92